createdAt,value
2023-05-28T00:00:17.502Z,37.86
2023-05-28T00:01:17.507Z,37.87
2023-05-28T00:02:17.523Z,37.91
2023-05-28T00:03:17.495Z,37.89
2023-05-28T00:04:17.618Z,37.88
2023-05-28T00:05:17.456Z,37.89
2023-05-28T00:06:17.533Z,37.89
2023-05-28T00:07:17.436Z,37.89
2023-05-28T00:08:17.427Z,37.86
2023-05-28T00:09:17.453Z,37.90
2023-05-28T00:10:17.435Z,37.87
2023-05-28T00:11:17.482Z,37.87
2023-05-28T00:12:17.518Z,37.85
2023-05-28T00:13:17.518Z,37.85
2023-05-28T00:14:17.552Z,37.86
2023-05-28T00:15:17.573Z,37.89
2023-05-28T00:16:17.629Z,37.88
2023-05-28T00:17:17.616Z,37.90
2023-05-28T00:18:17.634Z,37.90
2023-05-28T00:19:17.651Z,37.89
2023-05-28T00:20:17.724Z,37.88
2023-05-28T00:21:17.750Z,37.91
2023-05-28T00:22:17.749Z,37.85
2023-05-28T00:23:17.755Z,37.86
2023-05-28T00:24:17.756Z,37.90
2023-05-28T00:25:17.799Z,37.93
2023-05-28T00:26:17.829Z,37.86
2023-05-28T00:27:17.849Z,37.87
2023-05-28T00:28:17.850Z,37.91
2023-05-28T00:29:17.872Z,37.86
2023-05-28T00:30:17.878Z,37.88
2023-05-28T00:31:17.931Z,37.85
2023-05-28T00:32:17.922Z,37.89
2023-05-28T00:33:17.937Z,37.87
2023-05-28T00:34:17.940Z,37.90
2023-05-28T00:35:18.236Z,37.85
2023-05-28T00:36:20.585Z,37.89
2023-05-28T00:37:18.162Z,37.90
2023-05-28T00:38:18.201Z,37.89
2023-05-28T00:39:18.226Z,37.93
2023-05-28T00:40:18.222Z,37.87
2023-05-28T00:41:18.299Z,37.89
2023-05-28T00:42:18.293Z,37.86
2023-05-28T00:43:18.309Z,37.89
2023-05-28T00:44:18.358Z,37.91
2023-05-28T00:45:18.421Z,37.86
2023-05-28T00:46:18.490Z,37.89
2023-05-28T00:47:18.435Z,37.86
2023-05-28T00:48:18.466Z,37.90
2023-05-28T00:49:18.483Z,37.89
2023-05-28T00:50:18.532Z,37.89
2023-05-28T00:51:18.566Z,37.85
2023-05-28T00:52:18.560Z,37.89
2023-05-28T00:53:18.587Z,37.85
2023-05-28T00:54:18.555Z,37.93
2023-05-28T00:55:18.712Z,37.84
2023-05-28T00:56:19.007Z,37.89
2023-05-28T00:57:18.641Z,37.86
2023-05-28T00:58:18.682Z,37.88
2023-05-28T00:59:18.627Z,37.89
2023-05-28T01:00:18.627Z,37.86
2023-05-28T01:01:18.688Z,37.86
2023-05-28T01:02:18.646Z,37.86
2023-05-28T01:03:18.667Z,37.91
2023-05-28T01:04:18.688Z,37.89
2023-05-28T01:05:18.669Z,37.89
2023-05-28T01:06:18.727Z,37.90
2023-05-28T01:07:18.752Z,37.85
2023-05-28T01:08:18.790Z,37.85
2023-05-28T01:09:18.751Z,37.90
2023-05-28T01:10:18.764Z,37.86
2023-05-28T01:11:18.812Z,37.86
2023-05-28T01:12:18.819Z,37.90
2023-05-28T01:13:18.819Z,37.90
2023-05-28T01:14:18.854Z,37.84
2023-05-28T01:15:18.882Z,37.89
2023-05-28T01:16:19.131Z,37.90
2023-05-28T01:17:18.986Z,37.90
2023-05-28T01:18:18.979Z,37.86
2023-05-28T01:19:19.003Z,37.89
2023-05-28T01:20:19.064Z,37.85
2023-05-28T01:21:20.130Z,37.89
2023-05-28T01:22:19.114Z,37.92
2023-05-28T01:23:20.041Z,37.85
2023-05-28T01:24:19.114Z,37.86
2023-05-28T01:25:19.152Z,37.89
2023-05-28T01:26:19.185Z,37.84
2023-05-28T01:27:19.173Z,37.94
2023-05-28T01:28:19.199Z,37.87
2023-05-28T01:29:19.241Z,37.84
2023-05-28T01:30:19.222Z,37.91
2023-05-28T01:31:19.240Z,37.86
2023-05-28T01:32:19.226Z,37.84
2023-05-28T01:33:20.078Z,37.86
2023-05-28T01:34:19.255Z,37.86
2023-05-28T01:35:19.306Z,37.86
2023-05-28T01:36:19.317Z,37.85
2023-05-28T01:37:19.255Z,37.85
2023-05-28T01:38:19.281Z,37.86
2023-05-28T01:39:19.274Z,37.89
2023-05-28T01:40:19.272Z,37.90
2023-05-28T01:41:19.275Z,37.87
2023-05-28T01:42:19.331Z,37.85
2023-05-28T01:43:19.357Z,37.86
2023-05-28T01:44:20.024Z,37.86
2023-05-28T01:45:19.365Z,37.87
2023-05-28T01:46:19.429Z,37.89
2023-05-28T01:47:19.435Z,37.85
2023-05-28T01:48:19.423Z,37.87
2023-05-28T01:49:19.420Z,37.87
2023-05-28T01:50:19.450Z,37.90
2023-05-28T01:51:19.517Z,37.87
2023-05-28T01:52:19.524Z,37.90
2023-05-28T01:53:19.448Z,37.89
2023-05-28T01:54:19.466Z,37.87
2023-05-28T01:55:19.451Z,37.87
2023-05-28T01:56:21.049Z,37.90
2023-05-28T01:57:19.494Z,37.87
2023-05-28T01:58:19.563Z,37.89
2023-05-28T01:59:19.516Z,37.86
2023-05-28T02:00:19.571Z,37.85
2023-05-28T02:01:20.140Z,37.89
2023-05-28T02:02:19.609Z,37.91
2023-05-28T02:03:19.591Z,37.87
2023-05-28T02:04:19.737Z,37.90
2023-05-28T02:05:19.618Z,37.86
2023-05-28T02:06:20.533Z,37.89
2023-05-28T02:07:19.583Z,37.86
2023-05-28T02:08:19.576Z,37.87
2023-05-28T02:09:19.630Z,37.87
2023-05-28T02:10:20.518Z,37.86
2023-05-28T02:11:19.583Z,37.87
2023-05-28T02:12:19.591Z,37.91
2023-05-28T02:13:19.587Z,37.87
2023-05-28T02:14:19.686Z,37.86
2023-05-28T02:15:19.634Z,37.85
2023-05-28T02:16:19.755Z,37.89
2023-05-28T02:17:19.692Z,37.87
2023-05-28T02:18:19.755Z,37.90
2023-05-28T02:19:19.758Z,37.85
2023-05-28T02:20:19.773Z,37.89
2023-05-28T02:21:19.779Z,37.87
2023-05-28T02:22:19.764Z,37.85
2023-05-28T02:23:19.770Z,37.86
2023-05-28T02:24:19.816Z,37.88
2023-05-28T02:25:19.820Z,37.87
2023-05-28T02:26:19.877Z,37.88
2023-05-28T02:27:19.876Z,37.87
2023-05-28T02:28:19.886Z,37.89
2023-05-28T02:29:19.863Z,37.86
2023-05-28T02:30:19.892Z,37.91
2023-05-28T02:31:19.935Z,37.82
2023-05-28T02:32:19.915Z,37.86
2023-05-28T02:33:19.916Z,37.85
2023-05-28T02:34:19.915Z,37.86
2023-05-28T02:35:19.928Z,37.86
2023-05-28T02:36:19.902Z,37.88
2023-05-28T02:37:19.868Z,37.87
2023-05-28T02:38:19.897Z,37.87
2023-05-28T02:39:19.850Z,37.85
2023-05-28T02:40:19.861Z,37.88
2023-05-28T02:41:19.823Z,37.82
2023-05-28T02:42:19.859Z,37.90
2023-05-28T02:43:19.882Z,37.84
2023-05-28T02:44:19.816Z,37.86
2023-05-28T02:45:19.848Z,37.85
2023-05-28T02:46:19.837Z,37.84
2023-05-28T02:47:19.797Z,37.84
2023-05-28T02:48:19.770Z,37.82
2023-05-28T02:49:19.778Z,37.89
2023-05-28T02:50:19.779Z,37.82
2023-05-28T02:51:19.750Z,37.89
2023-05-28T02:52:19.762Z,37.84
2023-05-28T02:53:19.738Z,37.88
2023-05-28T02:54:19.759Z,37.85
2023-05-28T02:55:19.710Z,37.86
2023-05-28T02:56:19.770Z,37.87
2023-05-28T02:57:20.377Z,37.87
2023-05-28T02:58:19.718Z,37.86
2023-05-28T02:59:19.702Z,37.86
2023-05-28T03:00:19.712Z,37.86
2023-05-28T03:01:19.798Z,37.84
2023-05-28T03:02:19.710Z,37.85
2023-05-28T03:03:19.765Z,37.84
2023-05-28T03:04:19.682Z,37.85
2023-05-28T03:05:19.654Z,37.90
2023-05-28T03:06:19.662Z,37.87
2023-05-28T03:07:19.656Z,37.83
2023-05-28T03:08:19.648Z,37.84
2023-05-28T03:09:19.653Z,37.84
2023-05-28T03:10:19.614Z,37.86
2023-05-28T03:11:19.619Z,37.85
2023-05-28T03:12:19.622Z,37.84
2023-05-28T03:13:19.612Z,37.86
2023-05-28T03:14:19.621Z,37.87
2023-05-28T03:15:19.585Z,37.84
2023-05-28T03:16:19.624Z,37.86
2023-05-28T03:17:19.589Z,37.87
2023-05-28T03:18:19.563Z,37.86
2023-05-28T03:19:19.549Z,37.85
2023-05-28T03:20:19.620Z,37.84
2023-05-28T03:21:19.566Z,37.86
2023-05-28T03:22:19.574Z,37.87
2023-05-28T03:23:19.533Z,37.83
2023-05-28T03:24:19.501Z,37.84
2023-05-28T03:25:19.554Z,37.83
2023-05-28T03:26:19.562Z,37.86
2023-05-28T03:27:19.479Z,37.87
2023-05-28T03:28:19.508Z,37.87
2023-05-28T03:29:19.522Z,37.82
2023-05-28T03:30:19.482Z,37.87
2023-05-28T03:31:19.514Z,37.84
2023-05-28T03:32:19.449Z,37.82
2023-05-28T03:33:19.504Z,37.81
2023-05-28T03:34:19.484Z,37.84
2023-05-28T03:35:19.516Z,37.87
2023-05-28T03:36:19.499Z,37.84
2023-05-28T03:37:19.427Z,37.87
2023-05-28T03:38:19.456Z,37.86
2023-05-28T03:39:19.448Z,37.81
2023-05-28T03:40:19.453Z,37.84
2023-05-28T03:41:19.457Z,37.84
2023-05-28T03:42:19.432Z,37.88
2023-05-28T03:43:19.474Z,37.83
2023-05-28T03:44:19.485Z,37.86
2023-05-28T03:45:19.434Z,37.83
2023-05-28T03:46:19.467Z,37.86
2023-05-28T03:47:19.434Z,37.84
2023-05-28T03:48:19.438Z,37.83
2023-05-28T03:49:19.411Z,37.85
2023-05-28T03:50:19.420Z,37.83
2023-05-28T03:51:19.439Z,37.84
2023-05-28T03:52:19.442Z,37.87
2023-05-28T03:53:19.407Z,37.83
2023-05-28T03:54:19.402Z,37.84
2023-05-28T03:55:19.388Z,37.83
2023-05-28T03:56:19.393Z,37.82
2023-05-28T03:57:19.401Z,37.84
2023-05-28T03:58:19.374Z,37.84
2023-05-28T03:59:19.367Z,37.82
2023-05-28T04:00:19.356Z,37.84
2023-05-28T04:01:19.386Z,37.86
2023-05-28T04:02:19.406Z,37.82
2023-05-28T04:03:19.430Z,37.86
2023-05-28T04:04:19.453Z,37.82
2023-05-28T04:05:19.415Z,37.82
2023-05-28T04:06:19.358Z,37.84
2023-05-28T04:07:19.367Z,37.87
2023-05-28T04:08:19.351Z,37.86
2023-05-28T04:09:19.366Z,37.86
2023-05-28T04:10:19.344Z,37.84
2023-05-28T04:11:19.405Z,37.86
2023-05-28T04:12:19.344Z,37.81
2023-05-28T04:13:19.360Z,37.83
2023-05-28T04:14:19.376Z,37.82
2023-05-28T04:15:19.347Z,37.78
2023-05-28T04:16:19.348Z,37.86
2023-05-28T04:17:19.322Z,37.77
2023-05-28T04:18:19.353Z,37.82
2023-05-28T04:19:19.304Z,37.87
2023-05-28T04:20:19.390Z,37.83
2023-05-28T04:21:19.327Z,37.83
2023-05-28T04:22:19.328Z,37.82
2023-05-28T04:23:19.339Z,37.82
2023-05-28T04:24:19.338Z,37.82
2023-05-28T04:25:19.287Z,37.82
2023-05-28T04:26:19.320Z,37.82
2023-05-28T04:27:19.308Z,37.84
2023-05-28T04:28:19.320Z,37.83
2023-05-28T04:29:19.321Z,37.83
2023-05-28T04:30:19.253Z,37.81
2023-05-28T04:31:19.367Z,37.79
2023-05-28T04:32:19.326Z,37.81
2023-05-28T04:33:19.300Z,37.81
2023-05-28T04:34:19.312Z,37.77
2023-05-28T04:35:19.258Z,37.82
2023-05-28T04:36:19.626Z,37.79
2023-05-28T04:37:19.237Z,37.83
2023-05-28T04:38:19.354Z,37.81
2023-05-28T04:39:19.233Z,37.80
2023-05-28T04:40:19.251Z,37.79
2023-05-28T04:41:19.627Z,37.82
2023-05-28T04:42:19.238Z,37.81
2023-05-28T04:43:19.228Z,37.79
2023-05-28T04:44:19.268Z,37.82
2023-05-28T04:45:19.283Z,37.81
2023-05-28T04:46:19.688Z,37.81
2023-05-28T04:47:19.232Z,37.76
2023-05-28T04:48:19.254Z,37.79
2023-05-28T04:49:19.247Z,37.84
2023-05-28T04:50:19.223Z,37.80
2023-05-28T04:51:19.642Z,37.78
2023-05-28T04:52:19.241Z,37.79
2023-05-28T04:53:19.215Z,37.81
2023-05-28T04:54:19.208Z,37.77
2023-05-28T04:55:19.226Z,37.74
2023-05-28T04:56:19.660Z,37.81
2023-05-28T04:57:19.214Z,37.80
2023-05-28T04:58:19.222Z,37.78
2023-05-28T04:59:19.222Z,37.81
2023-05-28T05:00:19.213Z,37.77
2023-05-28T05:01:19.650Z,37.79
2023-05-28T05:02:19.249Z,37.78
2023-05-28T05:03:19.240Z,37.76
2023-05-28T05:04:19.312Z,37.82
2023-05-28T05:05:19.224Z,37.75
2023-05-28T05:06:19.647Z,37.76
2023-05-28T05:07:19.213Z,37.77
2023-05-28T05:08:19.236Z,37.77
2023-05-28T05:09:19.189Z,37.75
2023-05-28T05:10:19.211Z,37.75
2023-05-28T05:11:19.688Z,37.78
2023-05-28T05:12:19.236Z,37.77
2023-05-28T05:13:19.181Z,37.79
2023-05-28T05:14:21.213Z,37.76
2023-05-28T05:15:19.458Z,37.75
2023-05-28T05:16:19.692Z,37.77
2023-05-28T05:17:19.405Z,37.77
2023-05-28T05:18:19.392Z,37.73
2023-05-28T05:19:19.426Z,37.78
2023-05-28T05:20:19.500Z,37.75
2023-05-28T05:21:19.621Z,37.75
2023-05-28T05:22:19.424Z,37.72
2023-05-28T05:23:19.441Z,37.75
2023-05-28T05:24:19.416Z,37.77
2023-05-28T05:25:19.416Z,37.76
2023-05-28T05:26:19.429Z,37.74
2023-05-28T05:27:19.413Z,37.76
2023-05-28T05:28:19.399Z,37.78
2023-05-28T05:29:19.375Z,37.73
2023-05-28T05:30:19.414Z,37.75
2023-05-28T05:31:19.478Z,37.72
2023-05-28T05:32:19.394Z,37.79
2023-05-28T05:33:19.452Z,37.76
2023-05-28T05:34:19.382Z,37.75
2023-05-28T05:35:19.382Z,37.72
2023-05-28T05:36:19.432Z,37.75
2023-05-28T05:37:19.373Z,37.76
2023-05-28T05:38:19.367Z,37.72
2023-05-28T05:39:19.373Z,37.73
2023-05-28T05:40:19.375Z,37.71
2023-05-28T05:41:19.383Z,37.73
2023-05-28T05:42:19.389Z,37.74
2023-05-28T05:43:19.373Z,37.75
2023-05-28T05:44:19.378Z,37.73
2023-05-28T05:45:19.377Z,37.76
2023-05-28T05:46:19.447Z,37.72
2023-05-28T05:47:19.360Z,37.75
2023-05-28T05:48:21.879Z,37.76
2023-05-28T05:49:19.393Z,37.77
2023-05-28T05:50:19.364Z,37.75
2023-05-28T05:51:19.386Z,37.72
2023-05-28T05:52:19.355Z,37.75
2023-05-28T05:53:19.373Z,37.75
2023-05-28T05:54:19.331Z,37.73
2023-05-28T05:55:19.367Z,37.72
2023-05-28T05:56:19.353Z,37.72
2023-05-28T05:57:19.318Z,37.75
2023-05-28T05:58:19.345Z,37.75
2023-05-28T05:59:19.309Z,37.75
2023-05-28T06:00:19.312Z,37.76
2023-05-28T06:01:19.321Z,37.73
2023-05-28T06:02:19.345Z,37.71
2023-05-28T06:03:19.346Z,37.71
2023-05-28T06:04:19.266Z,37.73
2023-05-28T06:05:19.290Z,37.72
2023-05-28T06:06:19.260Z,37.74
2023-05-28T06:07:19.243Z,37.77
2023-05-28T06:08:19.257Z,37.73
2023-05-28T06:09:19.236Z,37.72
2023-05-28T06:10:19.219Z,37.73
2023-05-28T06:11:19.236Z,37.71
2023-05-28T06:12:19.232Z,37.71
2023-05-28T06:13:20.167Z,37.73
2023-05-28T06:14:19.237Z,37.73
2023-05-28T06:15:19.174Z,37.73
2023-05-28T06:16:19.272Z,37.71
2023-05-28T06:17:19.250Z,37.74
2023-05-28T06:18:19.167Z,37.73
2023-05-28T06:19:19.151Z,37.72
2023-05-28T06:20:19.217Z,37.74
2023-05-28T06:21:19.168Z,37.72
2023-05-28T06:22:19.129Z,37.73
2023-05-28T06:23:19.116Z,37.72
2023-05-28T06:24:19.138Z,37.74
2023-05-28T06:25:19.150Z,37.76
2023-05-28T06:26:19.133Z,37.74
2023-05-28T06:27:19.127Z,37.76
2023-05-28T06:28:19.093Z,37.72
2023-05-28T06:29:19.102Z,37.74
2023-05-28T06:30:19.108Z,37.71
2023-05-28T06:31:20.506Z,37.72
2023-05-28T06:32:19.077Z,37.72
2023-05-28T06:33:19.082Z,37.72
2023-05-28T06:34:19.131Z,37.74
2023-05-28T06:35:19.081Z,37.72
2023-05-28T06:36:19.107Z,37.71
2023-05-28T06:37:19.115Z,37.73
2023-05-28T06:38:19.088Z,37.72
2023-05-28T06:39:19.107Z,37.76
2023-05-28T06:40:19.115Z,37.71
2023-05-28T06:41:19.109Z,37.74
2023-05-28T06:42:19.116Z,37.75
2023-05-28T06:43:19.118Z,37.73
2023-05-28T06:44:19.095Z,37.73
2023-05-28T06:45:19.105Z,37.70
2023-05-28T06:46:19.112Z,37.71
2023-05-28T06:47:19.119Z,37.74
2023-05-28T06:48:19.079Z,37.68
2023-05-28T06:49:19.055Z,37.72
2023-05-28T06:50:19.062Z,37.68
2023-05-28T06:51:19.179Z,37.72
2023-05-28T06:52:19.131Z,37.70
2023-05-28T06:53:19.134Z,37.68
2023-05-28T06:54:19.128Z,37.72
2023-05-28T06:55:19.097Z,37.72
2023-05-28T06:56:19.146Z,37.70
2023-05-28T06:57:19.114Z,37.72
2023-05-28T06:58:19.131Z,37.66
2023-05-28T06:59:19.132Z,37.68
2023-05-28T07:00:19.167Z,37.66
2023-05-28T07:01:19.292Z,37.68
2023-05-28T07:02:19.271Z,37.72
2023-05-28T07:03:19.149Z,37.70
2023-05-28T07:04:19.213Z,37.71
2023-05-28T07:05:19.149Z,37.71
2023-05-28T07:06:19.139Z,37.67
2023-05-28T07:07:19.109Z,37.67
2023-05-28T07:08:19.174Z,37.67
2023-05-28T07:09:19.136Z,37.71
2023-05-28T07:10:19.181Z,37.72
2023-05-28T07:11:19.684Z,37.73
2023-05-28T07:12:19.191Z,37.71
2023-05-28T07:13:19.218Z,37.70
2023-05-28T07:14:19.211Z,37.70
2023-05-28T07:15:19.219Z,37.71
2023-05-28T07:16:19.667Z,37.70
2023-05-28T07:17:19.199Z,37.67
2023-05-28T07:18:19.227Z,37.68
2023-05-28T07:19:19.194Z,37.70
2023-05-28T07:20:19.288Z,37.67
2023-05-28T07:21:19.664Z,37.68
2023-05-28T07:22:19.224Z,37.69
2023-05-28T07:23:19.231Z,37.70
2023-05-28T07:24:19.184Z,37.66
2023-05-28T07:25:19.205Z,37.67
2023-05-28T07:26:19.664Z,37.70
2023-05-28T07:27:19.197Z,37.67
2023-05-28T07:28:19.223Z,37.68
2023-05-28T07:29:19.215Z,37.68
2023-05-28T07:30:19.221Z,37.67
2023-05-28T07:31:19.255Z,37.65
2023-05-28T07:32:19.268Z,37.66
2023-05-28T07:33:19.246Z,37.68
2023-05-28T07:34:19.251Z,37.66
2023-05-28T07:35:19.199Z,37.67
2023-05-28T07:36:19.225Z,37.67
2023-05-28T07:37:19.201Z,37.65
2023-05-28T07:38:19.282Z,37.63
2023-05-28T07:39:19.289Z,37.68
2023-05-28T07:40:19.297Z,37.64
2023-05-28T07:41:19.305Z,37.67
2023-05-28T07:42:19.275Z,37.66
2023-05-28T07:43:19.315Z,37.70
2023-05-28T07:44:19.327Z,37.68
2023-05-28T07:45:19.324Z,37.66
2023-05-28T07:46:19.439Z,37.68
2023-05-28T07:47:19.394Z,37.63
2023-05-28T07:48:19.370Z,37.67
2023-05-28T07:49:19.405Z,37.70
2023-05-28T07:50:19.425Z,37.68
2023-05-28T07:51:19.468Z,37.66
2023-05-28T07:52:19.479Z,37.65
2023-05-28T07:53:19.485Z,37.66
2023-05-28T07:54:19.492Z,37.67
2023-05-28T07:55:19.496Z,37.66
2023-05-28T07:56:19.498Z,37.70
2023-05-28T07:57:19.517Z,37.66
2023-05-28T07:58:19.512Z,37.67
2023-05-28T07:59:19.505Z,37.65
2023-05-28T08:00:19.490Z,37.66
2023-05-28T08:01:19.483Z,37.62
2023-05-28T08:02:19.477Z,37.64
2023-05-28T08:03:19.676Z,37.61
2023-05-28T08:04:19.585Z,37.66
2023-05-28T08:05:19.526Z,37.63
2023-05-28T08:06:19.523Z,37.63
2023-05-28T08:07:19.624Z,37.64
2023-05-28T08:08:19.553Z,37.61
2023-05-28T08:09:19.552Z,37.63
2023-05-28T08:10:19.559Z,37.65
2023-05-28T08:11:19.564Z,37.61
2023-05-28T08:12:19.550Z,37.66
2023-05-28T08:13:19.571Z,37.63
2023-05-28T08:14:19.623Z,37.65
2023-05-28T08:15:19.592Z,37.63
2023-05-28T08:16:19.747Z,37.63
2023-05-28T08:17:19.697Z,37.63
2023-05-28T08:18:19.712Z,37.60
2023-05-28T08:19:19.738Z,37.61
2023-05-28T08:20:19.819Z,37.61
2023-05-28T08:21:19.781Z,37.65
2023-05-28T08:22:19.754Z,37.62
2023-05-28T08:23:19.772Z,37.65
2023-05-28T08:24:19.831Z,37.61
2023-05-28T08:25:19.903Z,37.62
2023-05-28T08:26:20.187Z,37.59
2023-05-28T08:27:19.876Z,37.62
2023-05-28T08:28:19.885Z,37.63
2023-05-28T08:29:19.889Z,37.60
2023-05-28T08:30:19.899Z,37.64
2023-05-28T08:31:20.219Z,37.59
2023-05-28T08:32:19.927Z,37.61
2023-05-28T08:33:19.980Z,37.58
2023-05-28T08:34:19.937Z,37.63
2023-05-28T08:35:19.935Z,37.60
2023-05-28T08:36:19.940Z,37.60
2023-05-28T08:37:19.932Z,37.60
2023-05-28T08:38:19.973Z,37.61
2023-05-28T08:39:20.013Z,37.63
2023-05-28T08:40:20.034Z,37.61
2023-05-28T08:41:20.031Z,37.61
2023-05-28T08:42:20.030Z,37.57
2023-05-28T08:43:20.036Z,37.57
2023-05-28T08:44:20.092Z,37.61
2023-05-28T08:45:20.080Z,37.59
2023-05-28T08:46:20.135Z,37.64
2023-05-28T08:47:20.157Z,37.63
2023-05-28T08:48:20.154Z,37.59
2023-05-28T08:49:20.170Z,37.56
2023-05-28T08:50:20.218Z,37.60
2023-05-28T08:51:20.152Z,37.59
2023-05-28T08:52:20.230Z,37.60
2023-05-28T08:53:20.209Z,37.59
2023-05-28T08:54:20.219Z,37.56
2023-05-28T08:55:20.349Z,37.59
2023-05-28T08:56:20.745Z,37.60
2023-05-28T08:57:20.300Z,37.57
2023-05-28T08:58:20.313Z,37.63
2023-05-28T08:59:20.330Z,37.63
2023-05-28T09:00:20.372Z,37.57
2023-05-28T09:01:20.380Z,37.58
2023-05-28T09:02:20.424Z,37.55
2023-05-28T09:03:20.508Z,37.57
2023-05-28T09:04:20.467Z,37.57
2023-05-28T09:05:20.425Z,37.58
2023-05-28T09:06:20.449Z,37.59
2023-05-28T09:07:20.457Z,37.60
2023-05-28T09:08:20.520Z,37.57
2023-05-28T09:09:20.518Z,37.58
2023-05-28T09:10:20.543Z,37.55
2023-05-28T09:11:20.586Z,37.59
2023-05-28T09:12:20.562Z,37.59
2023-05-28T09:13:20.593Z,37.58
2023-05-28T09:14:20.643Z,37.59
2023-05-28T09:15:20.668Z,37.57
2023-05-28T09:16:20.739Z,37.59
2023-05-28T09:17:20.717Z,37.58
2023-05-28T09:18:20.742Z,37.57
2023-05-28T09:19:20.814Z,37.54
2023-05-28T09:20:20.960Z,37.59
2023-05-28T09:21:20.784Z,37.58
2023-05-28T09:22:21.083Z,37.60
2023-05-28T09:23:20.835Z,37.59
2023-05-28T09:24:20.865Z,37.57
2023-05-28T09:25:20.953Z,37.55
2023-05-28T09:26:21.034Z,37.54
2023-05-28T09:27:21.210Z,37.54
2023-05-28T09:28:21.001Z,37.58
2023-05-28T09:29:21.032Z,37.57
2023-05-28T09:30:21.072Z,37.59
2023-05-28T09:31:21.259Z,37.57
2023-05-28T09:32:21.130Z,37.54
2023-05-28T09:33:21.207Z,37.57
2023-05-28T09:34:21.248Z,37.52
2023-05-28T09:35:21.267Z,37.53
2023-05-28T09:36:21.311Z,37.52
2023-05-28T09:37:21.289Z,37.56
2023-05-28T09:38:21.339Z,37.55
2023-05-28T09:39:21.381Z,37.53
2023-05-28T09:40:21.404Z,37.53
2023-05-28T09:41:21.516Z,37.56
2023-05-28T09:42:21.511Z,37.53
2023-05-28T09:43:21.541Z,37.52
2023-05-28T09:44:21.590Z,37.52
2023-05-28T09:45:21.636Z,37.54
2023-05-28T09:46:21.686Z,37.52
2023-05-28T09:47:21.746Z,37.51
2023-05-28T09:48:21.772Z,37.57
2023-05-28T09:49:21.865Z,37.58
2023-05-28T09:50:21.905Z,37.54
2023-05-28T09:51:21.957Z,37.51
2023-05-28T09:52:22.009Z,37.51
2023-05-28T09:53:22.026Z,37.50
2023-05-28T09:54:22.112Z,37.53
2023-05-28T09:55:22.151Z,37.47
2023-05-28T09:56:22.229Z,37.52
2023-05-28T09:57:22.293Z,37.54
2023-05-28T09:58:22.327Z,37.51
2023-05-28T09:59:22.500Z,37.49
2023-05-28T10:00:22.452Z,37.49
2023-05-28T10:01:22.789Z,37.54
2023-05-28T10:02:22.653Z,37.55
2023-05-28T10:03:22.700Z,37.50
2023-05-28T10:04:22.713Z,37.50
2023-05-28T10:05:22.745Z,37.49
2023-05-28T10:06:22.880Z,37.50
2023-05-28T10:07:22.882Z,37.49
2023-05-28T10:08:22.972Z,37.49
2023-05-28T10:09:22.995Z,37.50
2023-05-28T10:10:23.059Z,37.46
2023-05-28T10:11:23.144Z,37.49
2023-05-28T10:12:23.195Z,37.49
2023-05-28T10:13:23.247Z,37.46
2023-05-28T10:14:23.341Z,37.49
2023-05-28T10:15:23.383Z,37.49
2023-05-28T10:16:23.796Z,37.48
2023-05-28T10:17:23.660Z,37.48
2023-05-28T10:18:23.572Z,37.45
2023-05-28T10:19:23.714Z,37.46
2023-05-28T10:20:23.752Z,37.42
2023-05-28T10:21:23.757Z,37.45
2023-05-28T10:22:23.831Z,37.43
2023-05-28T10:23:23.921Z,37.41
2023-05-28T10:24:23.950Z,37.46
2023-05-28T10:25:24.025Z,37.41
2023-05-28T10:26:24.096Z,37.43
2023-05-28T10:27:24.214Z,37.42
2023-05-28T10:28:24.235Z,37.40
2023-05-28T10:29:24.290Z,37.41
2023-05-28T10:30:24.342Z,37.41
2023-05-28T10:31:24.808Z,37.40
2023-05-28T10:32:24.494Z,37.43
2023-05-28T10:33:24.537Z,37.39
2023-05-28T10:34:24.618Z,37.43
2023-05-28T10:35:24.671Z,37.41
2023-05-28T10:36:24.736Z,37.39
2023-05-28T10:37:24.759Z,37.38
2023-05-28T10:38:24.817Z,37.40
2023-05-28T10:39:24.887Z,37.41
2023-05-28T10:40:24.928Z,37.41
2023-05-28T10:41:24.997Z,37.40
2023-05-28T10:42:25.036Z,37.39
2023-05-28T10:43:25.098Z,37.38
2023-05-28T10:44:25.166Z,37.34
2023-05-28T10:45:25.196Z,37.33
2023-05-28T10:46:25.385Z,37.34
2023-05-28T10:47:25.339Z,37.36
2023-05-28T10:48:25.359Z,37.36
2023-05-28T10:49:25.427Z,37.36
2023-05-28T10:50:25.483Z,37.30
2023-05-28T10:51:25.551Z,37.30
2023-05-28T10:52:25.617Z,37.32
2023-05-28T10:53:25.675Z,37.32
2023-05-28T10:54:25.735Z,37.34
2023-05-28T10:55:25.760Z,37.27
2023-05-28T10:56:26.267Z,37.30
2023-05-28T10:57:25.866Z,37.28
2023-05-28T10:58:25.948Z,37.29
2023-05-28T10:59:26.013Z,37.23
2023-05-28T11:00:26.077Z,37.30
2023-05-28T11:01:26.256Z,37.26
2023-05-28T11:02:26.189Z,37.28
2023-05-28T11:03:26.327Z,37.28
2023-05-28T11:04:26.276Z,37.26
2023-05-28T11:05:26.278Z,37.27
2023-05-28T11:06:26.354Z,37.27
2023-05-28T11:07:26.402Z,37.23
2023-05-28T11:08:26.446Z,37.27
2023-05-28T11:09:26.488Z,37.22
2023-05-28T11:10:26.576Z,37.27
2023-05-28T11:11:26.605Z,37.24
2023-05-28T11:12:26.683Z,37.20
2023-05-28T11:13:26.723Z,37.24
2023-05-28T11:14:26.755Z,37.23
2023-05-28T11:15:26.836Z,37.21
2023-05-28T11:16:27.289Z,37.23
2023-05-28T11:17:26.953Z,37.24
2023-05-28T11:18:26.954Z,37.21
2023-05-28T11:19:27.003Z,37.23
2023-05-28T11:20:27.119Z,37.25
2023-05-28T11:21:27.146Z,37.20
2023-05-28T11:22:27.169Z,37.20
2023-05-28T11:23:27.223Z,37.22
2023-05-28T11:24:27.277Z,37.20
2023-05-28T11:25:27.273Z,37.21
2023-05-28T11:26:27.324Z,37.18
2023-05-28T11:27:27.403Z,37.14
2023-05-28T11:28:27.420Z,37.14
2023-05-28T11:29:27.462Z,37.16
2023-05-28T11:30:27.525Z,37.19
2023-05-28T11:31:27.598Z,37.19
2023-05-28T11:32:27.646Z,37.17
2023-05-28T11:33:27.615Z,37.14
2023-05-28T11:34:27.671Z,37.13
2023-05-28T11:35:27.715Z,37.15
2023-05-28T11:36:27.757Z,37.14
2023-05-28T11:37:27.835Z,37.14
2023-05-28T11:38:27.835Z,37.14
2023-05-28T11:39:27.991Z,37.14
2023-05-28T11:40:29.719Z,37.15
2023-05-28T11:41:27.984Z,37.16
2023-05-28T11:42:28.020Z,37.15
2023-05-28T11:43:28.783Z,37.14
2023-05-28T11:44:28.081Z,37.10
2023-05-28T11:45:28.122Z,37.11
2023-05-28T11:46:28.332Z,37.13
2023-05-28T11:47:28.251Z,37.12
2023-05-28T11:48:28.283Z,37.11
2023-05-28T11:49:28.302Z,37.12
2023-05-28T11:50:28.305Z,37.12
2023-05-28T11:51:28.800Z,37.12
2023-05-28T11:52:28.485Z,37.09
2023-05-28T11:53:28.442Z,37.13
2023-05-28T11:54:28.505Z,37.12
2023-05-28T11:55:28.572Z,37.12
2023-05-28T11:56:28.773Z,37.16
2023-05-28T11:57:28.592Z,37.13
2023-05-28T11:58:28.633Z,37.08
2023-05-28T11:59:28.703Z,37.14
2023-05-28T12:00:28.731Z,37.12
2023-05-28T12:01:29.331Z,37.11
2023-05-28T12:02:28.937Z,37.13
2023-05-28T12:03:28.923Z,37.13
2023-05-28T12:04:28.941Z,37.14
2023-05-28T12:05:28.930Z,37.18
2023-05-28T12:06:39.775Z,37.08
2023-05-28T12:07:29.978Z,37.12
2023-05-28T12:08:28.916Z,37.09
2023-05-28T12:09:28.965Z,37.12
2023-05-28T12:10:28.926Z,37.09
2023-05-28T12:11:28.989Z,37.13
2023-05-28T12:12:29.020Z,37.10
2023-05-28T12:13:29.060Z,37.13
2023-05-28T12:14:29.101Z,37.13
2023-05-28T12:15:29.165Z,37.13
2023-05-28T12:16:29.228Z,37.11
2023-05-28T12:17:29.263Z,37.11
2023-05-28T12:18:29.247Z,37.07
2023-05-28T12:19:29.263Z,37.08
2023-05-28T12:20:29.377Z,37.12
2023-05-28T12:21:29.358Z,37.09
2023-05-28T12:22:29.406Z,37.11
2023-05-28T12:23:29.433Z,37.08
2023-05-28T12:24:29.497Z,37.08
2023-05-28T12:25:29.589Z,37.08
2023-05-28T12:26:29.639Z,37.07
2023-05-28T12:27:29.620Z,37.11
2023-05-28T12:28:29.633Z,37.11
2023-05-28T12:29:30.716Z,37.11
2023-05-28T12:30:29.691Z,37.09
2023-05-28T12:31:29.896Z,37.15
2023-05-28T12:32:29.851Z,37.12
2023-05-28T12:33:29.845Z,37.12
2023-05-28T12:34:29.912Z,37.11
2023-05-28T12:35:29.921Z,37.11
2023-05-28T12:36:30.323Z,37.12
2023-05-28T12:37:30.015Z,37.07
2023-05-28T12:38:30.097Z,37.11
2023-05-28T12:39:30.142Z,37.09
2023-05-28T12:40:30.142Z,37.10
2023-05-28T12:41:30.176Z,37.08
2023-05-28T12:42:30.231Z,37.12
2023-05-28T12:43:30.271Z,37.11
2023-05-28T12:44:30.276Z,37.09
2023-05-28T12:45:30.348Z,37.13
2023-05-28T12:46:30.870Z,37.11
2023-05-28T12:47:30.462Z,37.12
2023-05-28T12:48:30.469Z,37.12
2023-05-28T12:49:30.490Z,37.08
2023-05-28T12:50:30.541Z,37.10
2023-05-28T12:51:30.583Z,37.11
2023-05-28T12:52:30.660Z,37.13